createdAt,value
2018-02-21T00:01:52.125Z,99699.41
2018-02-21T00:04:20.630Z,99700.43
2018-02-21T00:06:49.133Z,99704.16
2018-02-21T00:09:17.631Z,99700.12
2018-02-21T00:11:46.139Z,99706.45
2018-02-21T00:14:14.614Z,99703.55
2018-02-21T00:16:43.106Z,99704.66
2018-02-21T00:19:11.594Z,99701.25
2018-02-21T00:21:40.082Z,99709.41
2018-02-21T00:24:08.630Z,99699.49
2018-02-21T00:26:37.122Z,99697.73
2018-02-21T00:29:05.592Z,99701.69
2018-02-21T00:31:34.076Z,99695.05
2018-02-21T00:34:02.574Z,99697.95
2018-02-21T00:36:31.048Z,99691.84
2018-02-21T00:38:59.590Z,99690.70
2018-02-21T00:41:28.050Z,99684.68
2018-02-21T00:43:56.547Z,99684.89
2018-02-21T00:46:25.049Z,99685.52
2018-02-21T00:48:53.562Z,99685.11
2018-02-21T00:51:22.003Z,99681.80
2018-02-21T00:53:50.462Z,99671.65
2018-02-21T00:56:18.955Z,99668.97
2018-02-21T00:58:47.453Z,99669.91
2018-02-21T01:01:15.906Z,99669.73
2018-02-21T01:03:44.379Z,99668.97
2018-02-21T01:06:12.871Z,99669.16
2018-02-21T01:08:41.360Z,99671.86
2018-02-21T01:11:09.855Z,99668.02
2018-02-21T01:13:38.314Z,99673.39
2018-02-21T01:16:06.819Z,99676.72
2018-02-21T01:18:35.318Z,99664.81
2018-02-21T01:21:03.814Z,99656.81
2018-02-21T01:23:32.294Z,99654.48
2018-02-21T01:26:00.786Z,99656.76
2018-02-21T01:28:29.282Z,99649.00
2018-02-21T01:30:57.742Z,99660.19
2018-02-21T01:33:26.239Z,99646.94
2018-02-21T01:35:54.742Z,99654.67
2018-02-21T01:38:23.266Z,99644.92
2018-02-21T01:40:51.740Z,99650.30
2018-02-21T01:43:20.273Z,99639.69
2018-02-21T01:45:48.774Z,99637.63
2018-02-21T01:48:17.237Z,99643.14
2018-02-21T01:50:52.505Z,99632.93
2018-02-21T01:53:21.011Z,99643.68
2018-02-21T01:55:49.487Z,99646.16
2018-02-21T01:58:17.947Z,99644.81
2018-02-21T02:00:46.464Z,99636.34
2018-02-21T02:03:14.941Z,99637.36
2018-02-21T02:05:43.437Z,99641.39
2018-02-21T02:08:11.930Z,99635.00
2018-02-21T02:10:40.445Z,99632.48
2018-02-21T02:13:08.957Z,99636.24
2018-02-21T02:15:37.418Z,99634.28
2018-02-21T02:18:05.918Z,99642.24
2018-02-21T02:20:34.411Z,99621.63
2018-02-21T02:23:02.910Z,99638.50
2018-02-21T02:25:31.411Z,99650.17
2018-02-21T02:27:59.918Z,99637.58
2018-02-21T02:30:28.417Z,99628.56
2018-02-21T02:32:56.893Z,99632.60
2018-02-21T02:35:25.402Z,99633.05
2018-02-21T02:37:53.861Z,99639.53
2018-02-21T02:40:22.376Z,99628.78
2018-02-21T02:42:50.874Z,99637.94
2018-02-21T02:45:19.338Z,99628.07
2018-02-21T02:47:47.834Z,99635.61
2018-02-21T02:50:16.299Z,99631.28
2018-02-21T02:52:44.812Z,99631.88
2018-02-21T02:55:13.314Z,99631.88
2018-02-21T02:57:41.770Z,99632.91
2018-02-21T03:00:10.345Z,99632.70
2018-02-21T03:02:38.855Z,99633.64
2018-02-21T03:05:07.371Z,99639.91
2018-02-21T03:07:35.815Z,99619.70
2018-02-21T03:10:04.343Z,99638.34
2018-02-21T03:12:32.846Z,99638.30
2018-02-21T03:15:01.313Z,99636.17
2018-02-21T03:17:29.822Z,99627.16
2018-02-21T03:19:58.281Z,99642.27
2018-02-21T03:22:26.738Z,99644.46
2018-02-21T03:24:55.257Z,99646.52
2018-02-21T03:27:23.731Z,99648.09
2018-02-21T03:29:52.202Z,99645.19
2018-02-21T03:32:22.649Z,99651.69
2018-02-21T03:34:51.127Z,99651.19
2018-02-21T03:37:19.589Z,99652.20
2018-02-21T03:39:48.124Z,99654.17
2018-02-21T03:42:16.613Z,99645.27
2018-02-21T03:44:45.095Z,99643.13
2018-02-21T03:47:13.626Z,99644.58
2018-02-21T03:49:42.102Z,99641.17
2018-02-21T03:52:10.568Z,99644.47
2018-02-21T03:54:39.066Z,99635.66
2018-02-21T03:57:07.542Z,99628.02
2018-02-21T03:59:36.135Z,99618.72
2018-02-21T04:02:04.590Z,99629.66
2018-02-21T04:04:33.050Z,99629.05
2018-02-21T04:07:01.565Z,99623.68
2018-02-21T04:09:30.090Z,99626.45
2018-02-21T04:11:58.562Z,99626.45
2018-02-21T04:14:27.018Z,99617.25
2018-02-21T04:16:55.535Z,99629.35
2018-02-21T04:19:23.998Z,99621.09
2018-02-21T04:21:52.494Z,99628.44
2018-02-21T04:24:20.990Z,99631.22
2018-02-21T04:26:49.491Z,99637.53
2018-02-21T04:29:17.950Z,99642.38
2018-02-21T04:31:46.429Z,99645.95
2018-02-21T04:34:14.922Z,99641.25
2018-02-21T04:36:43.382Z,99644.16
2018-02-21T04:39:11.898Z,99641.16
2018-02-21T04:41:40.393Z,99645.19
2018-02-21T04:44:08.882Z,99627.61
2018-02-21T04:46:37.350Z,99631.02
2018-02-21T04:49:05.847Z,99629.17
2018-02-21T04:51:34.350Z,99626.69
2018-02-21T04:54:02.814Z,99632.80
2018-02-21T04:56:49.769Z,99637.33
2018-02-21T04:59:18.813Z,99631.34
2018-02-21T05:01:47.291Z,99627.63
2018-02-21T05:04:15.790Z,99613.23
2018-02-21T05:06:44.322Z,99633.20
2018-02-21T05:09:12.773Z,99638.16
2018-02-21T05:11:41.234Z,99642.40
2018-02-21T05:14:09.736Z,99625.45
2018-02-21T05:16:38.191Z,99641.98
2018-02-21T05:19:06.685Z,99645.59
2018-02-21T05:21:35.159Z,99647.68
2018-02-21T05:24:03.650Z,99637.11
2018-02-21T05:26:32.158Z,99650.87
2018-02-21T05:29:00.649Z,99647.34
2018-02-21T05:31:29.138Z,99651.39
2018-02-21T05:33:57.602Z,99651.19
2018-02-21T05:36:26.140Z,99653.45
2018-02-21T05:38:54.639Z,99619.50
2018-02-21T05:41:23.102Z,99659.47
2018-02-21T05:43:51.590Z,99663.89
2018-02-21T05:46:20.052Z,99670.74
2018-02-21T05:48:48.566Z,99666.50
2018-02-21T05:51:17.035Z,99667.34
2018-02-21T05:53:45.525Z,99665.78
2018-02-21T05:56:14.026Z,99672.30
2018-02-21T05:58:42.526Z,99660.80
2018-02-21T06:01:11.063Z,99674.25
2018-02-21T06:03:39.534Z,99656.66
2018-02-21T06:06:08.058Z,99668.02
2018-02-21T06:08:36.504Z,99667.11
2018-02-21T06:11:05.001Z,99669.06
2018-02-21T06:13:33.462Z,99668.45
2018-02-21T06:16:01.983Z,99673.11
2018-02-21T06:18:30.493Z,99670.11
2018-02-21T06:20:58.970Z,99653.47
2018-02-21T06:23:27.483Z,99664.14
2018-02-21T06:25:55.983Z,99675.80
2018-02-21T06:28:24.461Z,99680.59
2018-02-21T06:30:52.993Z,99677.80
2018-02-21T06:33:21.518Z,99670.03
2018-02-21T06:35:50.007Z,99676.65
2018-02-21T06:38:18.507Z,99682.84
2018-02-21T06:40:46.978Z,99684.09
2018-02-21T06:43:15.464Z,99677.46
2018-02-21T06:45:43.966Z,99686.58
2018-02-21T06:48:12.452Z,99683.16
2018-02-21T06:50:41.007Z,99682.34
2018-02-21T06:53:09.483Z,99680.98
2018-02-21T06:55:38.010Z,99680.15
2018-02-21T06:58:06.491Z,99666.39
2018-02-21T07:00:34.997Z,99654.20
2018-02-21T07:03:03.458Z,99682.44
2018-02-21T07:05:32.202Z,99687.61
2018-02-21T07:08:00.748Z,99689.98
2018-02-21T07:10:29.209Z,99682.55
2018-02-21T07:12:57.710Z,99669.17
2018-02-21T07:15:26.265Z,99685.64
2018-02-21T07:17:54.717Z,99677.15
2018-02-21T07:20:23.229Z,99693.06
2018-02-21T07:22:51.709Z,99696.70
2018-02-21T07:25:20.214Z,99686.52
2018-02-21T07:27:48.677Z,99690.06
2018-02-21T07:30:17.169Z,99692.65
2018-02-21T07:32:45.666Z,99680.12
2018-02-21T07:35:14.127Z,99686.30
2018-02-21T07:37:42.630Z,99694.91
2018-02-21T07:40:11.186Z,99681.89
2018-02-21T07:42:39.691Z,99691.09
2018-02-21T07:45:08.233Z,99691.30
2018-02-21T07:47:36.726Z,99695.95
2018-02-21T07:50:05.218Z,99696.36
2018-02-21T07:52:33.739Z,99694.40
2018-02-21T07:55:02.240Z,99694.40
2018-02-21T07:57:30.790Z,99676.33
2018-02-21T07:59:59.265Z,99691.83
2018-02-21T08:02:27.739Z,99676.99
2018-02-21T08:04:56.246Z,99688.57
2018-02-21T08:07:24.751Z,99689.18
2018-02-21T08:09:53.256Z,99689.48
2018-02-21T08:12:21.714Z,99688.55
2018-02-21T08:14:50.229Z,99689.16
2018-02-21T08:17:18.742Z,99683.77
2018-02-21T08:19:47.210Z,99686.17
2018-02-21T08:22:15.898Z,99671.68
2018-02-21T08:24:44.446Z,99693.47
2018-02-21T08:27:12.955Z,99693.35
2018-02-21T08:29:41.414Z,99696.98
2018-02-21T08:32:09.914Z,99692.42
2018-02-21T08:34:38.408Z,99687.70
2018-02-21T08:37:06.931Z,99694.75
2018-02-21T08:39:35.444Z,99674.78
2018-02-21T08:42:03.912Z,99687.54
2018-02-21T08:44:32.438Z,99678.92
2018-02-21T08:47:00.944Z,99682.52
2018-02-21T08:49:29.447Z,99680.76
2018-02-21T08:51:57.950Z,99682.23
2018-02-21T08:54:26.465Z,99688.19
2018-02-21T08:56:54.938Z,99683.83
2018-02-21T08:59:23.450Z,99686.07
2018-02-21T09:01:51.930Z,99667.13
2018-02-21T09:04:20.451Z,99683.01
2018-02-21T09:06:48.961Z,99684.97
2018-02-21T09:09:17.435Z,99690.39
2018-02-21T09:11:45.910Z,99685.22
2018-02-21T09:14:14.346Z,99683.94
2018-02-21T09:16:42.921Z,99686.75
2018-02-21T09:19:11.411Z,99687.16
2018-02-21T09:21:39.919Z,99679.60
2018-02-21T09:24:08.380Z,99696.25
2018-02-21T09:26:36.841Z,99698.59
2018-02-21T09:29:05.326Z,99689.02
2018-02-21T09:31:33.793Z,99697.45
2018-02-21T09:34:02.307Z,99692.20
2018-02-21T09:36:30.804Z,99699.48
2018-02-21T09:38:59.268Z,99681.28
2018-02-21T09:41:27.767Z,99690.72
2018-02-21T09:43:56.274Z,99673.43
2018-02-21T09:46:24.814Z,99693.55
2018-02-21T09:48:53.259Z,99695.31
2018-02-21T09:51:21.789Z,99686.02
2018-02-21T09:53:50.249Z,99692.87
2018-02-21T09:56:18.714Z,99692.33
2018-02-21T09:58:47.178Z,99672.17
2018-02-21T10:01:15.736Z,99676.23
2018-02-21T10:03:44.207Z,99687.11
2018-02-21T10:06:12.713Z,99666.74
2018-02-21T10:08:41.210Z,99669.08
2018-02-21T10:11:09.671Z,99667.65
2018-02-21T10:13:38.193Z,99666.33
2018-02-21T10:16:06.666Z,99670.47
2018-02-21T10:18:35.165Z,99667.21
2018-02-21T10:21:03.663Z,99668.11
2018-02-21T10:23:32.125Z,99662.38
2018-02-21T10:26:00.636Z,99660.05
2018-02-21T10:28:29.096Z,99665.78
2018-02-21T10:30:57.575Z,99654.27
2018-02-21T10:33:26.082Z,99656.63
2018-02-21T10:35:54.571Z,99654.31
2018-02-21T10:38:23.085Z,99646.36
2018-02-21T10:40:51.550Z,99652.30
2018-02-21T10:43:20.046Z,99660.11
2018-02-21T10:45:48.548Z,99661.59
2018-02-21T10:48:17.012Z,99658.66
2018-02-21T10:50:45.790Z,99661.83
2018-02-21T10:53:14.250Z,99658.04
2018-02-21T10:55:42.758Z,99653.36
2018-02-21T10:58:12.110Z,99645.23
2018-02-21T11:00:46.187Z,99661.29
2018-02-21T11:03:14.658Z,99657.39
2018-02-21T11:05:43.165Z,99645.90
2018-02-21T11:08:11.688Z,99656.06
2018-02-21T11:10:40.217Z,99661.12
2018-02-21T11:13:08.681Z,99639.11
2018-02-21T11:15:37.147Z,99640.34
2018-02-21T11:18:05.639Z,99644.30
2018-02-21T11:20:34.104Z,99646.08
2018-02-21T11:23:02.629Z,99635.83
2018-02-21T11:25:31.101Z,99631.92
2018-02-21T11:27:59.921Z,99644.47
2018-02-21T11:30:28.384Z,99616.36
2018-02-21T11:32:56.922Z,99638.41
2018-02-21T11:35:25.444Z,99638.06
2018-02-21T11:37:53.990Z,99647.64
2018-02-21T11:40:22.464Z,99637.18
2018-02-21T11:42:50.970Z,99638.77
2018-02-21T11:45:19.466Z,99643.18
2018-02-21T11:47:47.923Z,99604.05
2018-02-21T11:50:16.422Z,99645.84
2018-02-21T11:52:44.918Z,99635.20
2018-02-21T11:55:13.382Z,99633.31
2018-02-21T11:57:41.884Z,99608.97
2018-02-21T12:00:10.418Z,99625.03
2018-02-21T12:02:38.987Z,99607.50
2018-02-21T12:05:07.493Z,99623.30
2018-02-21T12:07:35.993Z,99622.58
2018-02-21T12:10:04.498Z,99600.89
2018-02-21T12:12:33.065Z,99614.97
2018-02-21T12:15:01.567Z,99614.43
2018-02-21T12:17:30.076Z,99615.05
2018-02-21T12:19:58.575Z,99614.23
2018-02-21T12:22:27.045Z,99622.43
2018-02-21T12:24:55.556Z,99615.29
2018-02-21T12:27:24.028Z,99613.35
2018-02-21T12:29:52.538Z,99627.78
2018-02-21T12:32:24.392Z,99621.98
2018-02-21T12:34:52.912Z,99633.44
2018-02-21T12:37:21.379Z,99635.88
2018-02-21T12:39:49.918Z,99643.02
2018-02-21T12:42:18.401Z,99645.16
2018-02-21T12:44:46.884Z,99644.28
2018-02-21T12:47:15.363Z,99642.94
2018-02-21T12:49:43.867Z,99646.31
2018-02-21T12:52:12.334Z,99642.05
2018-02-21T12:54:40.872Z,99618.06
2018-02-21T12:57:09.367Z,99619.94
2018-02-21T12:59:37.842Z,99630.17
2018-02-21T13:02:06.310Z,99628.50
2018-02-21T13:04:34.814Z,99616.30
2018-02-21T13:07:03.327Z,99632.08
2018-02-21T13:09:31.822Z,99628.25
2018-02-21T13:12:00.296Z,99622.98
2018-02-21T13:14:28.838Z,99611.94
2018-02-21T13:16:57.309Z,99611.74
2018-02-21T13:19:25.811Z,99596.21
2018-02-21T13:21:54.260Z,99603.71
2018-02-21T13:24:22.754Z,99603.59
2018-02-21T13:26:51.231Z,99608.48
2018-02-21T13:29:19.695Z,99611.31
2018-02-21T13:31:48.197Z,99589.95
2018-02-21T13:34:16.664Z,99607.13
2018-02-21T13:36:45.163Z,99607.02
2018-02-21T13:39:13.676Z,99598.11
2018-02-21T13:41:42.166Z,99609.70
2018-02-21T13:44:10.638Z,99605.33
2018-02-21T13:46:39.122Z,99605.50
2018-02-21T13:49:07.635Z,99602.61
2018-02-21T13:51:36.098Z,99590.68
2018-02-21T13:54:04.614Z,99609.83
2018-02-21T13:56:33.114Z,99587.66
2018-02-21T13:59:01.614Z,99606.45
2018-02-21T14:01:30.076Z,99604.36
2018-02-21T14:03:58.586Z,99600.59
2018-02-21T14:06:27.046Z,99602.41
2018-02-21T14:08:55.514Z,99591.59
2018-02-21T14:11:23.999Z,99605.30
2018-02-21T14:13:52.461Z,99610.08
2018-02-21T14:16:20.970Z,99602.20
2018-02-21T14:18:49.437Z,99603.14
2018-02-21T14:21:17.978Z,99604.20
2018-02-21T14:23:46.439Z,99605.76
2018-02-21T14:26:14.967Z,99603.22
2018-02-21T14:28:43.490Z,99603.41
2018-02-21T14:31:12.009Z,99602.80
2018-02-21T14:33:40.510Z,99586.28
2018-02-21T14:36:08.974Z,99611.84
2018-02-21T14:38:37.468Z,99610.44
2018-02-21T14:41:05.920Z,99613.53
2018-02-21T14:43:34.434Z,99603.68
2018-02-21T14:46:02.936Z,99608.34
2018-02-21T14:48:31.410Z,99598.70
2018-02-21T14:50:59.906Z,99596.41
2018-02-21T14:53:28.414Z,99613.06
2018-02-21T14:55:56.937Z,99609.07
2018-02-21T14:58:25.449Z,99611.63
2018-02-21T15:00:53.928Z,99615.72
2018-02-21T15:03:22.418Z,99614.16
2018-02-21T15:05:50.891Z,99609.05
2018-02-21T15:08:19.394Z,99608.16
2018-02-21T15:10:47.886Z,99576.07
2018-02-21T15:13:16.380Z,99589.69
2018-02-21T15:15:44.846Z,99600.23
2018-02-21T15:18:13.357Z,99595.90
2018-02-21T15:20:41.898Z,99595.48
2018-02-21T15:23:10.351Z,99586.75
2018-02-21T15:25:38.814Z,99588.13
2018-02-21T15:28:07.362Z,99587.66
2018-02-21T15:30:35.838Z,99588.02
2018-02-21T15:33:04.337Z,99506.14
2018-02-21T15:35:32.790Z,99588.49
2018-02-21T15:38:01.286Z,99587.28
2018-02-21T15:40:29.814Z,99587.20
2018-02-21T15:42:58.318Z,99590.83
2018-02-21T15:45:26.777Z,99595.77
2018-02-21T15:47:55.267Z,99595.77
2018-02-21T15:50:23.783Z,99596.67
2018-02-21T15:52:52.277Z,99596.72
2018-02-21T15:55:20.733Z,99580.11
2018-02-21T15:57:49.230Z,99597.44
2018-02-21T16:00:17.686Z,99604.39
2018-02-21T16:02:46.187Z,99614.11
2018-02-21T16:05:14.651Z,99618.12
2018-02-21T16:07:43.158Z,99617.10
2018-02-21T16:10:11.623Z,99618.04
2018-02-21T16:12:40.097Z,99613.31
2018-02-21T16:15:08.606Z,99619.95
2018-02-21T16:17:37.082Z,99621.59
2018-02-21T16:20:05.543Z,99626.57
2018-02-21T16:22:34.086Z,99613.06
2018-02-21T16:25:02.556Z,99624.04
2018-02-21T16:27:31.054Z,99630.16
2018-02-21T16:29:59.524Z,99626.53
2018-02-21T16:32:28.042Z,99636.05
2018-02-21T16:34:56.534Z,99635.63
2018-02-21T16:37:25.039Z,99634.49
2018-02-21T16:39:53.498Z,99637.28
2018-02-21T16:42:21.956Z,99650.89
2018-02-21T16:44:50.453Z,99647.91
2018-02-21T16:47:18.911Z,99653.44
2018-02-21T16:49:47.366Z,99658.73
2018-02-21T16:52:15.855Z,99663.52
2018-02-21T16:54:44.314Z,99664.89
2018-02-21T16:57:12.824Z,99655.26
2018-02-21T16:59:41.281Z,99659.47
2018-02-21T17:02:09.762Z,99655.55
2018-02-21T17:04:38.266Z,99656.66
2018-02-21T17:07:06.762Z,99652.39
2018-02-21T17:09:35.228Z,99651.27
2018-02-21T17:12:03.737Z,99652.73
2018-02-21T17:14:32.193Z,99656.13
2018-02-21T17:17:00.671Z,99656.25
2018-02-21T17:19:29.170Z,99655.80
2018-02-21T17:21:57.647Z,99651.77
2018-02-21T17:24:26.155Z,99656.13
2018-02-21T17:26:54.626Z,99647.11
2018-02-21T17:29:23.122Z,99654.25
2018-02-21T17:31:51.665Z,99652.50
2018-02-21T17:34:20.125Z,99639.27
2018-02-21T17:36:48.607Z,99656.05
2018-02-21T17:39:17.101Z,99658.13
2018-02-21T17:41:45.566Z,99650.53
2018-02-21T17:44:14.057Z,99643.63
2018-02-21T17:46:42.549Z,99660.98
2018-02-21T17:49:11.045Z,99663.48
2018-02-21T17:51:39.506Z,99656.55
2018-02-21T17:54:08.010Z,99663.07
2018-02-21T17:56:36.512Z,99656.74
2018-02-21T17:59:05.008Z,99658.05
2018-02-21T18:01:33.465Z,99650.45
2018-02-21T18:04:01.961Z,99649.36
2018-02-21T18:06:30.421Z,99656.50
2018-02-21T18:08:58.929Z,99653.89
2018-02-21T18:11:27.386Z,99652.95
2018-02-21T18:13:55.893Z,99655.73
2018-02-21T18:16:24.412Z,99655.31
2018-02-21T18:18:52.892Z,99659.56
2018-02-21T18:21:26.845Z,99658.63
2018-02-21T18:23:55.307Z,99659.97
2018-02-21T18:26:23.794Z,99657.08
2018-02-21T18:28:52.293Z,99663.94
2018-02-21T18:31:20.807Z,99670.95
2018-02-21T18:33:49.263Z,99661.40
2018-02-21T18:36:17.783Z,99648.17
2018-02-21T18:38:46.282Z,99663.65
2018-02-21T18:41:14.734Z,99659.97
2018-02-21T18:43:43.226Z,99665.77
2018-02-21T18:46:11.694Z,99670.95
2018-02-21T18:48:40.189Z,99669.33
2018-02-21T18:51:08.694Z,99678.72
2018-02-21T18:53:37.233Z,99666.83
2018-02-21T18:56:05.730Z,99671.78
2018-02-21T18:58:34.226Z,99665.57
2018-02-21T19:01:03.668Z,99663.81
2018-02-21T19:03:32.206Z,99661.85
2018-02-21T19:06:00.715Z,99672.10
2018-02-21T19:08:29.214Z,99669.53
2018-02-21T19:10:57.719Z,99668.27
2018-02-21T19:13:26.182Z,99666.30
2018-02-21T19:15:54.641Z,99674.31
2018-02-21T19:18:23.141Z,99675.36
2018-02-21T19:20:51.624Z,99674.10
2018-02-21T19:23:20.122Z,99669.56
2018-02-21T19:25:48.614Z,99664.80
2018-02-21T19:28:17.117Z,99658.95
2018-02-21T19:30:45.570Z,99651.93
2018-02-21T19:33:14.046Z,99653.41
2018-02-21T19:35:42.554Z,99656.63
2018-02-21T19:38:11.015Z,99649.42
2018-02-21T19:40:39.527Z,99662.66
2018-02-21T19:43:08.032Z,99666.94
2018-02-21T19:45:36.499Z,99660.41
2018-02-21T19:48:04.986Z,99662.38
2018-02-21T19:50:34.377Z,99664.13
2018-02-21T19:53:02.837Z,99664.16
2018-02-21T19:55:31.329Z,99651.83
2018-02-21T19:57:59.833Z,99652.23
2018-02-21T20:00:28.285Z,99660.73
2018-02-21T20:02:56.748Z,99654.49
2018-02-21T20:05:25.251Z,99663.84
2018-02-21T20:07:53.745Z,99655.48
2018-02-21T20:10:22.241Z,99657.11
2018-02-21T20:12:50.750Z,99664.78
2018-02-21T20:15:19.269Z,99659.24
2018-02-21T20:17:47.726Z,99661.41
2018-02-21T20:20:16.186Z,99665.23
2018-02-21T20:22:44.690Z,99654.66
2018-02-21T20:25:13.160Z,99651.64
2018-02-21T20:27:41.668Z,99660.17
2018-02-21T20:30:10.178Z,99663.90
2018-02-21T20:32:38.652Z,99662.13
2018-02-21T20:35:07.154Z,99670.59
2018-02-21T20:37:35.646Z,99670.09
2018-02-21T20:40:04.106Z,99665.81
2018-02-21T20:42:32.593Z,99660.13
2018-02-21T20:45:01.068Z,99667.77
2018-02-21T20:47:29.569Z,99669.97
2018-02-21T20:49:58.083Z,99664.22
2018-02-21T20:52:26.547Z,99658.50
2018-02-21T20:54:55.050Z,99662.95
2018-02-21T20:57:23.524Z,99664.30
2018-02-21T20:59:52.027Z,99655.11
2018-02-21T21:02:20.503Z,99661.73
2018-02-21T21:04:49.046Z,99652.22
2018-02-21T21:07:17.556Z,99655.11
2018-02-21T21:09:46.062Z,99663.16
2018-02-21T21:12:14.557Z,99660.59
2018-02-21T21:14:43.063Z,99652.74
2018-02-21T21:17:11.565Z,99653.36
2018-02-21T21:19:40.029Z,99653.27
2018-02-21T21:22:08.526Z,99656.70
2018-02-21T21:24:37.010Z,99654.62
2018-02-21T21:27:05.506Z,99658.98
2018-02-21T21:29:33.970Z,99657.97
2018-02-21T21:32:02.475Z,99657.11
2018-02-21T21:34:30.958Z,99654.29
2018-02-21T21:36:59.466Z,99656.63
2018-02-21T21:39:27.927Z,99651.77
2018-02-21T21:41:56.403Z,99657.52
2018-02-21T21:44:24.897Z,99656.09
2018-02-21T21:46:53.389Z,99654.70
2018-02-21T21:49:21.907Z,99649.80
2018-02-21T21:51:50.371Z,99647.47
2018-02-21T21:54:18.869Z,99643.44
2018-02-21T21:56:47.325Z,99650.66
2018-02-21T21:59:15.894Z,99636.66
2018-02-21T22:01:44.335Z,99642.95
2018-02-21T22:04:12.859Z,99645.84
2018-02-21T22:06:41.322Z,99646.58
2018-02-21T22:09:09.792Z,99643.80
2018-02-21T22:11:38.302Z,99639.80
2018-02-21T22:14:06.779Z,99640.58
2018-02-21T22:16:35.278Z,99627.14
2018-02-21T22:19:03.770Z,99639.76
2018-02-21T22:21:32.234Z,99636.86
2018-02-21T22:24:00.774Z,99633.44
2018-02-21T22:26:29.266Z,99634.41
2018-02-21T22:28:57.774Z,99631.47
2018-02-21T22:31:26.285Z,99627.95
2018-02-21T22:33:54.746Z,99627.75
2018-02-21T22:36:23.246Z,99626.08
2018-02-21T22:38:51.705Z,99622.04
2018-02-21T22:41:20.194Z,99623.06
2018-02-21T22:43:48.654Z,99624.53
2018-02-21T22:46:17.150Z,99623.47
2018-02-21T22:48:45.645Z,99613.83
2018-02-21T22:51:14.102Z,99625.06
2018-02-21T22:53:42.561Z,99621.63
2018-02-21T22:56:11.066Z,99612.16
2018-02-21T22:58:39.580Z,99627.22
2018-02-21T23:01:08.039Z,99619.75
2018-02-21T23:03:36.522Z,99619.05
2018-02-21T23:06:05.022Z,99622.77
2018-02-21T23:08:33.510Z,99623.59
2018-02-21T23:11:02.023Z,99613.95
2018-02-21T23:13:30.478Z,99617.09
2018-02-21T23:15:58.982Z,99590.72
2018-02-21T23:18:27.458Z,99613.22
2018-02-21T23:20:55.951Z,99616.27
2018-02-21T23:23:24.401Z,99613.26
2018-02-21T23:25:53.781Z,99608.28
2018-02-21T23:28:22.236Z,99611.91
2018-02-21T23:30:50.744Z,99618.45
2018-02-21T23:33:19.206Z,99613.70
2018-02-21T23:35:47.682Z,99611.83
2018-02-21T23:38:16.137Z,99616.40
2018-02-21T23:40:44.619Z,99613.79
2018-02-21T23:43:13.118Z,99614.61
2018-02-21T23:45:41.589Z,99612.73
2018-02-21T23:48:10.073Z,99611.06
2018-02-21T23:50:38.571Z,99589.99
2018-02-21T23:53:07.033Z,99611.92
2018-02-21T23:55:35.522Z,99605.34
2018-02-21T23:58:03.982Z,99610.20
